sensor_id;sensor_type;location;lat;lon;timestamp;P1;durP1;ratioP1;P2;durP2;ratioP2
12832;SDS011;6483;51.310;4.462;2022-07-10T00:01:47;4.68;;;2.55;;
12832;SDS011;6483;51.310;4.462;2022-07-10T00:04:13;5.32;;;2.30;;
12832;SDS011;6483;51.310;4.462;2022-07-10T00:06:39;5.93;;;2.40;;
12832;SDS011;6483;51.310;4.462;2022-07-10T00:09:06;3.20;;;2.30;;
12832;SDS011;6483;51.310;4.462;2022-07-10T00:11:33;4.00;;;2.60;;
12832;SDS011;6483;51.310;4.462;2022-07-10T00:14:01;7.75;;;2.33;;
12832;SDS011;6483;51.310;4.462;2022-07-10T00:16:27;6.57;;;2.60;;
12832;SDS011;6483;51.310;4.462;2022-07-10T00:18:56;3.72;;;2.10;;
12832;SDS011;6483;51.310;4.462;2022-07-10T00:21:23;6.85;;;2.42;;
12832;SDS011;6483;51.310;4.462;2022-07-10T00:23:49;3.77;;;2.03;;
12832;SDS011;6483;51.310;4.462;2022-07-10T00:26:14;5.13;;;2.57;;
12832;SDS011;6483;51.310;4.462;2022-07-10T00:28:40;4.93;;;2.50;;
12832;SDS011;6483;51.310;4.462;2022-07-10T00:31:09;2.57;;;2.10;;
12832;SDS011;6483;51.310;4.462;2022-07-10T00:33:35;4.13;;;2.67;;
12832;SDS011;6483;51.310;4.462;2022-07-10T00:36:05;5.40;;;2.70;;
12832;SDS011;6483;51.310;4.462;2022-07-10T00:38:32;5.30;;;2.20;;
12832;SDS011;6483;51.310;4.462;2022-07-10T00:40:58;4.60;;;2.40;;
12832;SDS011;6483;51.310;4.462;2022-07-10T00:43:23;3.23;;;2.40;;
12832;SDS011;6483;51.310;4.462;2022-07-10T00:45:49;6.27;;;2.60;;
12832;SDS011;6483;51.310;4.462;2022-07-10T00:48:15;6.78;;;2.28;;
12832;SDS011;6483;51.310;4.462;2022-07-10T00:50:59;4.03;;;2.90;;
12832;SDS011;6483;51.310;4.462;2022-07-10T00:53:24;4.57;;;2.42;;
12832;SDS011;6483;51.310;4.462;2022-07-10T00:55:53;6.67;;;2.70;;
12832;SDS011;6483;51.310;4.462;2022-07-10T00:58:20;5.23;;;2.60;;
12832;SDS011;6483;51.310;4.462;2022-07-10T01:00:47;5.83;;;2.63;;
12832;SDS011;6483;51.310;4.462;2022-07-10T01:03:13;4.10;;;2.53;;
12832;SDS011;6483;51.310;4.462;2022-07-10T01:05:46;4.23;;;2.27;;
12832;SDS011;6483;51.310;4.462;2022-07-10T01:08:11;5.53;;;2.57;;
12832;SDS011;6483;51.310;4.462;2022-07-10T01:10:40;4.43;;;2.80;;
12832;SDS011;6483;51.310;4.462;2022-07-10T01:13:06;5.57;;;2.57;;
12832;SDS011;6483;51.310;4.462;2022-07-10T01:15:36;3.70;;;2.70;;
12832;SDS011;6483;51.310;4.462;2022-07-10T01:18:03;3.70;;;2.78;;
12832;SDS011;6483;51.310;4.462;2022-07-10T01:20:32;5.13;;;2.60;;
12832;SDS011;6483;51.310;4.462;2022-07-10T01:22:59;5.33;;;2.87;;
12832;SDS011;6483;51.310;4.462;2022-07-10T01:25:25;5.23;;;2.60;;
12832;SDS011;6483;51.310;4.462;2022-07-10T01:27:51;4.33;;;2.57;;
12832;SDS011;6483;51.310;4.462;2022-07-10T01:30:17;7.10;;;2.80;;
12832;SDS011;6483;51.310;4.462;2022-07-10T01:32:47;5.67;;;2.50;;
12832;SDS011;6483;51.310;4.462;2022-07-10T01:35:12;4.63;;;3.10;;
12832;SDS011;6483;51.310;4.462;2022-07-10T01:37:41;5.20;;;2.20;;
12832;SDS011;6483;51.310;4.462;2022-07-10T01:40:11;3.30;;;2.43;;
12832;SDS011;6483;51.310;4.462;2022-07-10T01:42:37;6.27;;;2.70;;
12832;SDS011;6483;51.310;4.462;2022-07-10T01:45:07;3.10;;;2.50;;
12832;SDS011;6483;51.310;4.462;2022-07-10T01:47:38;6.40;;;2.60;;
12832;SDS011;6483;51.310;4.462;2022-07-10T01:50:05;6.47;;;2.50;;
12832;SDS011;6483;51.310;4.462;2022-07-10T01:52:32;4.93;;;2.53;;
12832;SDS011;6483;51.310;4.462;2022-07-10T01:54:58;7.60;;;2.60;;
12832;SDS011;6483;51.310;4.462;2022-07-10T01:57:23;4.87;;;2.60;;
12832;SDS011;6483;51.310;4.462;2022-07-10T01:59:52;2.93;;;2.40;;
12832;SDS011;6483;51.310;4.462;2022-07-10T02:02:20;2.97;;;2.53;;
12832;SDS011;6483;51.310;4.462;2022-07-10T02:04:49;4.60;;;2.50;;
12832;SDS011;6483;51.310;4.462;2022-07-10T02:07:16;5.63;;;2.67;;
12832;SDS011;6483;51.310;4.462;2022-07-10T02:09:45;4.57;;;2.60;;
12832;SDS011;6483;51.310;4.462;2022-07-10T02:12:12;5.90;;;2.80;;
12832;SDS011;6483;51.310;4.462;2022-07-10T02:14:41;5.87;;;2.97;;
12832;SDS011;6483;51.310;4.462;2022-07-10T02:17:10;6.87;;;3.07;;
12832;SDS011;6483;51.310;4.462;2022-07-10T02:19:36;4.03;;;2.20;;
12832;SDS011;6483;51.310;4.462;2022-07-10T02:22:03;2.93;;;2.60;;
12832;SDS011;6483;51.310;4.462;2022-07-10T02:24:48;3.97;;;2.83;;
12832;SDS011;6483;51.310;4.462;2022-07-10T02:27:15;3.67;;;2.80;;
12832;SDS011;6483;51.310;4.462;2022-07-10T02:29:41;4.10;;;2.60;;
12832;SDS011;6483;51.310;4.462;2022-07-10T02:32:12;5.53;;;2.70;;
12832;SDS011;6483;51.310;4.462;2022-07-10T02:34:38;4.30;;;2.70;;
12832;SDS011;6483;51.310;4.462;2022-07-10T02:37:04;4.30;;;3.00;;
12832;SDS011;6483;51.310;4.462;2022-07-10T02:39:35;5.03;;;2.77;;
12832;SDS011;6483;51.310;4.462;2022-07-10T02:42:01;3.80;;;2.63;;
12832;SDS011;6483;51.310;4.462;2022-07-10T02:44:30;5.57;;;3.03;;
12832;SDS011;6483;51.310;4.462;2022-07-10T02:47:02;5.13;;;2.97;;
12832;SDS011;6483;51.310;4.462;2022-07-10T02:49:31;5.63;;;2.83;;
12832;SDS011;6483;51.310;4.462;2022-07-10T02:51:58;4.47;;;2.63;;
12832;SDS011;6483;51.310;4.462;2022-07-10T02:54:24;5.93;;;2.80;;
12832;SDS011;6483;51.310;4.462;2022-07-10T02:56:49;5.97;;;2.70;;
12832;SDS011;6483;51.310;4.462;2022-07-10T02:59:15;3.13;;;2.73;;
12832;SDS011;6483;51.310;4.462;2022-07-10T03:01:45;2.50;;;2.30;;
12832;SDS011;6483;51.310;4.462;2022-07-10T03:04:10;4.63;;;2.63;;
12832;SDS011;6483;51.310;4.462;2022-07-10T03:06:36;3.40;;;2.83;;
12832;SDS011;6483;51.310;4.462;2022-07-10T03:09:07;4.07;;;2.23;;
12832;SDS011;6483;51.310;4.462;2022-07-10T03:11:33;3.30;;;2.57;;
12832;SDS011;6483;51.310;4.462;2022-07-10T03:13:58;2.87;;;2.50;;
12832;SDS011;6483;51.310;4.462;2022-07-10T03:16:24;4.07;;;2.83;;
12832;SDS011;6483;51.310;4.462;2022-07-10T03:18:58;5.00;;;2.50;;
12832;SDS011;6483;51.310;4.462;2022-07-10T03:21:24;2.90;;;2.20;;
12832;SDS011;6483;51.310;4.462;2022-07-10T03:23:49;3.70;;;2.73;;
12832;SDS011;6483;51.310;4.462;2022-07-10T03:26:33;4.80;;;2.90;;
12832;SDS011;6483;51.310;4.462;2022-07-10T03:28:59;3.37;;;2.83;;
12832;SDS011;6483;51.310;4.462;2022-07-10T03:31:25;3.03;;;2.67;;
12832;SDS011;6483;51.310;4.462;2022-07-10T03:33:50;4.93;;;2.60;;
12832;SDS011;6483;51.310;4.462;2022-07-10T03:36:17;5.27;;;2.50;;
12832;SDS011;6483;51.310;4.462;2022-07-10T03:38:45;7.73;;;2.60;;
12832;SDS011;6483;51.310;4.462;2022-07-10T03:41:11;3.97;;;2.53;;
12832;SDS011;6483;51.310;4.462;2022-07-10T03:43:40;5.10;;;2.40;;
12832;SDS011;6483;51.310;4.462;2022-07-10T03:46:11;4.10;;;2.50;;
12832;SDS011;6483;51.310;4.462;2022-07-10T03:48:37;4.70;;;3.00;;
12832;SDS011;6483;51.310;4.462;2022-07-10T03:51:02;5.53;;;2.80;;
12832;SDS011;6483;51.310;4.462;2022-07-10T03:53:31;8.40;;;2.77;;
12832;SDS011;6483;51.310;4.462;2022-07-10T03:56:15;4.20;;;2.87;;
12832;SDS011;6483;51.310;4.462;2022-07-10T03:59:00;3.07;;;2.50;;
12832;SDS011;6483;51.310;4.462;2022-07-10T04:01:26;6.57;;;2.87;;
12832;SDS011;6483;51.310;4.462;2022-07-10T04:03:52;4.57;;;3.10;;
12832;SDS011;6483;51.310;4.462;2022-07-10T04:06:18;4.03;;;2.53;;
12832;SDS011;6483;51.310;4.462;2022-07-10T04:08:46;2.93;;;2.40;;
12832;SDS011;6483;51.310;4.462;2022-07-10T04:11:14;8.67;;;3.33;;
12832;SDS011;6483;51.310;4.462;2022-07-10T04:13:40;7.37;;;2.77;;
12832;SDS011;6483;51.310;4.462;2022-07-10T04:16:06;3.20;;;2.90;;
12832;SDS011;6483;51.310;4.462;2022-07-10T04:18:36;7.13;;;3.00;;
12832;SDS011;6483;51.310;4.462;2022-07-10T04:21:01;4.50;;;3.30;;
12832;SDS011;6483;51.310;4.462;2022-07-10T04:23:27;6.17;;;3.00;;
12832;SDS011;6483;51.310;4.462;2022-07-10T04:25:57;6.83;;;3.00;;
12832;SDS011;6483;51.310;4.462;2022-07-10T04:28:25;3.70;;;2.67;;
12832;SDS011;6483;51.310;4.462;2022-07-10T04:30:51;4.27;;;2.50;;
12832;SDS011;6483;51.310;4.462;2022-07-10T04:33:17;6.17;;;3.37;;
12832;SDS011;6483;51.310;4.462;2022-07-10T04:35:43;3.40;;;2.70;;
12832;SDS011;6483;51.310;4.462;2022-07-10T04:38:08;6.30;;;2.80;;
12832;SDS011;6483;51.310;4.462;2022-07-10T04:40:34;5.17;;;2.77;;
12832;SDS011;6483;51.310;4.462;2022-07-10T04:43:00;6.90;;;3.00;;
12832;SDS011;6483;51.310;4.462;2022-07-10T04:45:25;2.50;;;2.30;;
12832;SDS011;6483;51.310;4.462;2022-07-10T04:47:54;4.17;;;2.80;;
12832;SDS011;6483;51.310;4.462;2022-07-10T04:50:20;7.03;;;3.00;;
12832;SDS011;6483;51.310;4.462;2022-07-10T04:52:48;2.87;;;2.60;;
12832;SDS011;6483;51.310;4.462;2022-07-10T04:55:15;5.07;;;2.93;;
12832;SDS011;6483;51.310;4.462;2022-07-10T04:57:43;10.23;;;2.80;;
12832;SDS011;6483;51.310;4.462;2022-07-10T05:00:09;3.40;;;2.50;;
12832;SDS011;6483;51.310;4.462;2022-07-10T05:02:38;2.87;;;2.10;;
12832;SDS011;6483;51.310;4.462;2022-07-10T05:05:04;4.57;;;2.50;;
12832;SDS011;6483;51.310;4.462;2022-07-10T05:07:30;4.50;;;2.40;;
12832;SDS011;6483;51.310;4.462;2022-07-10T05:09:56;3.37;;;2.60;;
12832;SDS011;6483;51.310;4.462;2022-07-10T05:12:22;4.72;;;2.80;;
12832;SDS011;6483;51.310;4.462;2022-07-10T05:14:47;6.63;;;2.53;;
12832;SDS011;6483;51.310;4.462;2022-07-10T05:17:13;13.40;;;3.43;;
12832;SDS011;6483;51.310;4.462;2022-07-10T05:20:00;3.80;;;2.75;;
12832;SDS011;6483;51.310;4.462;2022-07-10T05:22:29;4.43;;;2.80;;
12832;SDS011;6483;51.310;4.462;2022-07-10T05:24:59;3.07;;;2.30;;
12832;SDS011;6483;51.310;4.462;2022-07-10T05:27:25;3.17;;;2.30;;
12832;SDS011;6483;51.310;4.462;2022-07-10T05:29:54;4.55;;;2.53;;
12832;SDS011;6483;51.310;4.462;2022-07-10T05:32:20;3.70;;;2.30;;
12832;SDS011;6483;51.310;4.462;2022-07-10T05:34:46;5.40;;;2.30;;
12832;SDS011;6483;51.310;4.462;2022-07-10T05:37:12;3.15;;;1.90;;
12832;SDS011;6483;51.310;4.462;2022-07-10T05:39:38;6.72;;;2.55;;
12832;SDS011;6483;51.310;4.462;2022-07-10T05:42:03;4.72;;;2.15;;
12832;SDS011;6483;51.310;4.462;2022-07-10T05:44:30;4.60;;;1.90;;
12832;SDS011;6483;51.310;4.462;2022-07-10T05:46:56;6.03;;;2.10;;
12832;SDS011;6483;51.310;4.462;2022-07-10T05:49:27;2.35;;;1.77;;
12832;SDS011;6483;51.310;4.462;2022-07-10T05:51:53;3.88;;;1.85;;
12832;SDS011;6483;51.310;4.462;2022-07-10T05:54:19;2.05;;;1.73;;
12832;SDS011;6483;51.310;4.462;2022-07-10T05:56:44;2.78;;;1.63;;
12832;SDS011;6483;51.310;4.462;2022-07-10T05:59:16;2.35;;;1.48;;
12832;SDS011;6483;51.310;4.462;2022-07-10T06:01:41;4.10;;;1.70;;
12832;SDS011;6483;51.310;4.462;2022-07-10T06:04:07;2.45;;;1.60;;
12832;SDS011;6483;51.310;4.462;2022-07-10T06:06:32;2.67;;;1.08;;
12832;SDS011;6483;51.310;4.462;2022-07-10T06:08:58;3.53;;;1.67;;
12832;SDS011;6483;51.310;4.462;2022-07-10T06:11:24;3.58;;;1.33;;
12832;SDS011;6483;51.310;4.462;2022-07-10T06:13:51;2.70;;;1.80;;
12832;SDS011;6483;51.310;4.462;2022-07-10T06:16:17;3.25;;;1.58;;
12832;SDS011;6483;51.310;4.462;2022-07-10T06:18:46;2.90;;;1.50;;
12832;SDS011;6483;51.310;4.462;2022-07-10T06:21:11;2.38;;;1.48;;
12832;SDS011;6483;51.310;4.462;2022-07-10T06:23:37;4.72;;;1.50;;
12832;SDS011;6483;51.310;4.462;2022-07-10T06:26:03;3.92;;;1.20;;
12832;SDS011;6483;51.310;4.462;2022-07-10T06:28:28;4.25;;;1.63;;
12832;SDS011;6483;51.310;4.462;2022-07-10T06:30:54;4.68;;;1.67;;
12832;SDS011;6483;51.310;4.462;2022-07-10T06:33:22;2.05;;;1.30;;
12832;SDS011;6483;51.310;4.462;2022-07-10T06:35:48;2.05;;;1.20;;
12832;SDS011;6483;51.310;4.462;2022-07-10T06:38:17;2.47;;;1.58;;
12832;SDS011;6483;51.310;4.462;2022-07-10T06:40:43;2.67;;;1.05;;
12832;SDS011;6483;51.310;4.462;2022-07-10T06:43:10;3.15;;;1.48;;
12832;SDS011;6483;51.310;4.462;2022-07-10T06:45:36;3.70;;;1.33;;
12832;SDS011;6483;51.310;4.462;2022-07-10T06:48:04;3.58;;;1.42;;
12832;SDS011;6483;51.310;4.462;2022-07-10T06:50:32;1.90;;;1.05;;
12832;SDS011;6483;51.310;4.462;2022-07-10T06:53:01;4.55;;;1.13;;
12832;SDS011;6483;51.310;4.462;2022-07-10T06:55:28;2.53;;;1.20;;
12832;SDS011;6483;51.310;4.462;2022-07-10T06:57:55;2.78;;;1.17;;
12832;SDS011;6483;51.310;4.462;2022-07-10T07:00:24;4.10;;;1.20;;
12832;SDS011;6483;51.310;4.462;2022-07-10T07:02:50;3.25;;;1.33;;
12832;SDS011;6483;51.310;4.462;2022-07-10T07:05:17;3.78;;;1.30;;
12832;SDS011;6483;51.310;4.462;2022-07-10T07:07:47;3.33;;;1.23;;
12832;SDS011;6483;51.310;4.462;2022-07-10T07:10:12;3.40;;;1.13;;
12832;SDS011;6483;51.310;4.462;2022-07-10T07:12:43;2.80;;;1.33;;
12832;SDS011;6483;51.310;4.462;2022-07-10T07:15:09;3.65;;;1.05;;
12832;SDS011;6483;51.310;4.462;2022-07-10T07:17:40;5.78;;;1.05;;
12832;SDS011;6483;51.310;4.462;2022-07-10T07:20:25;4.43;;;1.23;;
12832;SDS011;6483;51.310;4.462;2022-07-10T07:23:10;4.55;;;1.30;;
12832;SDS011;6483;51.310;4.462;2022-07-10T07:25:45;3.03;;;1.00;;
12832;SDS011;6483;51.310;4.462;2022-07-10T07:28:22;1.85;;;1.20;;
12832;SDS011;6483;51.310;4.462;2022-07-10T07:30:48;3.88;;;1.65;;
12832;SDS011;6483;51.310;4.462;2022-07-10T07:33:15;4.13;;;1.23;;
12832;SDS011;6483;51.310;4.462;2022-07-10T07:35:41;3.00;;;1.23;;
12832;SDS011;6483;51.310;4.462;2022-07-10T07:38:07;2.63;;;1.20;;
12832;SDS011;6483;51.310;4.462;2022-07-10T07:40:33;2.75;;;1.10;;
12832;SDS011;6483;51.310;4.462;2022-07-10T07:43:05;2.53;;;1.02;;
12832;SDS011;6483;51.310;4.462;2022-07-10T07:45:32;3.72;;;1.30;;
12832;SDS011;6483;51.310;4.462;2022-07-10T07:47:58;3.63;;;1.30;;
12832;SDS011;6483;51.310;4.462;2022-07-10T07:50:33;4.72;;;1.40;;
12832;SDS011;6483;51.310;4.462;2022-07-10T07:53:00;3.22;;;1.10;;
12832;SDS011;6483;51.310;4.462;2022-07-10T07:55:28;4.20;;;1.80;;
12832;SDS011;6483;51.310;4.462;2022-07-10T07:57:55;5.50;;;1.35;;
12832;SDS011;6483;51.310;4.462;2022-07-10T08:00:24;2.72;;;1.30;;
12832;SDS011;6483;51.310;4.462;2022-07-10T08:02:51;2.08;;;1.05;;
12832;SDS011;6483;51.310;4.462;2022-07-10T08:05:17;4.40;;;1.20;;
12832;SDS011;6483;51.310;4.462;2022-07-10T08:07:46;3.40;;;1.30;;
12832;SDS011;6483;51.310;4.462;2022-07-10T08:10:18;3.22;;;1.10;;
12832;SDS011;6483;51.310;4.462;2022-07-10T08:12:48;4.78;;;1.63;;
12832;SDS011;6483;51.310;4.462;2022-07-10T08:15:21;2.95;;;1.50;;
12832;SDS011;6483;51.310;4.462;2022-07-10T08:17:51;2.58;;;1.25;;
12832;SDS011;6483;51.310;4.462;2022-07-10T08:20:18;5.10;;;1.85;;
12832;SDS011;6483;51.310;4.462;2022-07-10T08:22:45;2.45;;;1.00;;
12832;SDS011;6483;51.310;4.462;2022-07-10T08:25:13;3.10;;;1.40;;
12832;SDS011;6483;51.310;4.462;2022-07-10T08:27:42;5.25;;;1.52;;
12832;SDS011;6483;51.310;4.462;2022-07-10T08:30:09;3.30;;;1.35;;
12832;SDS011;6483;51.310;4.462;2022-07-10T08:32:36;2.55;;;1.40;;
12832;SDS011;6483;51.310;4.462;2022-07-10T08:35:03;5.78;;;1.50;;
12832;SDS011;6483;51.310;4.462;2022-07-10T08:37:42;2.58;;;0.77;;
12832;SDS011;6483;51.310;4.462;2022-07-10T08:40:15;2.53;;;1.40;;
12832;SDS011;6483;51.310;4.462;2022-07-10T08:42:43;2.90;;;1.15;;
12832;SDS011;6483;51.310;4.462;2022-07-10T08:45:13;3.28;;;1.20;;
12832;SDS011;6483;51.310;4.462;2022-07-10T08:47:42;3.45;;;1.27;;
12832;SDS011;6483;51.310;4.462;2022-07-10T08:50:15;3.45;;;1.20;;
12832;SDS011;6483;51.310;4.462;2022-07-10T08:53:02;5.53;;;1.45;;
12832;SDS011;6483;51.310;4.462;2022-07-10T08:55:35;4.00;;;1.10;;
12832;SDS011;6483;51.310;4.462;2022-07-10T08:58:02;3.05;;;1.10;;
12832;SDS011;6483;51.310;4.462;2022-07-10T09:00:32;7.45;;;1.13;;
12832;SDS011;6483;51.310;4.462;2022-07-10T09:02:58;2.55;;;1.17;;
12832;SDS011;6483;51.310;4.462;2022-07-10T09:05:26;2.90;;;1.20;;
12832;SDS011;6483;51.310;4.462;2022-07-10T09:07:55;4.22;;;1.00;;
12832;SDS011;6483;51.310;4.462;2022-07-10T09:10:24;5.30;;;1.27;;
12832;SDS011;6483;51.310;4.462;2022-07-10T09:12:55;1.27;;;0.85;;
12832;SDS011;6483;51.310;4.462;2022-07-10T09:15:33;3.70;;;1.17;;
12832;SDS011;6483;51.310;4.462;2022-07-10T09:18:00;2.40;;;1.10;;
12832;SDS011;6483;51.310;4.462;2022-07-10T09:20:46;2.47;;;1.15;;
12832;SDS011;6483;51.310;4.462;2022-07-10T09:23:18;4.78;;;1.15;;
12832;SDS011;6483;51.310;4.462;2022-07-10T09:25:48;4.28;;;1.40;;
12832;SDS011;6483;51.310;4.462;2022-07-10T09:28:17;1.80;;;0.85;;
12832;SDS011;6483;51.310;4.462;2022-07-10T09:30:47;5.50;;;1.30;;
12832;SDS011;6483;51.310;4.462;2022-07-10T09:33:21;2.45;;;1.02;;
12832;SDS011;6483;51.310;4.462;2022-07-10T09:38:47;1.52;;;1.05;;
12832;SDS011;6483;51.310;4.462;2022-07-10T09:41:16;3.05;;;1.17;;
12832;SDS011;6483;51.310;4.462;2022-07-10T09:46:22;2.60;;;1.02;;
12832;SDS011;6483;51.310;4.462;2022-07-10T09:51:39;4.28;;;1.60;;
12832;SDS011;6483;51.310;4.462;2022-07-10T09:54:12;2.70;;;1.10;;
12832;SDS011;6483;51.310;4.462;2022-07-10T09:56:42;2.63;;;1.33;;
12832;SDS011;6483;51.310;4.462;2022-07-10T09:59:10;4.80;;;1.10;;
12832;SDS011;6483;51.310;4.462;2022-07-10T10:01:37;2.03;;;0.90;;
12832;SDS011;6483;51.310;4.462;2022-07-10T10:04:07;2.97;;;1.30;;
12832;SDS011;6483;51.310;4.462;2022-07-10T10:06:34;2.70;;;1.30;;
12832;SDS011;6483;51.310;4.462;2022-07-10T10:12:02;2.30;;;1.00;;
12832;SDS011;6483;51.310;4.462;2022-07-10T10:14:36;2.45;;;1.20;;
12832;SDS011;6483;51.310;4.462;2022-07-10T10:17:07;3.05;;;1.45;;
12832;SDS011;6483;51.310;4.462;2022-07-10T10:19:34;2.78;;;1.13;;
12832;SDS011;6483;51.310;4.462;2022-07-10T10:22:20;3.38;;;1.13;;
12832;SDS011;6483;51.310;4.462;2022-07-10T10:24:50;2.15;;;1.20;;
12832;SDS011;6483;51.310;4.462;2022-07-10T10:27:17;4.13;;;1.67;;
12832;SDS011;6483;51.310;4.462;2022-07-10T10:29:43;4.47;;;1.50;;
12832;SDS011;6483;51.310;4.462;2022-07-10T10:32:13;4.80;;;1.60;;
12832;SDS011;6483;51.310;4.462;2022-07-10T10:34:46;2.00;;;0.90;;
12832;SDS011;6483;51.310;4.462;2022-07-10T10:40:01;2.35;;;0.77;;
12832;SDS011;6483;51.310;4.462;2022-07-10T10:42:42;3.53;;;1.00;;
12832;SDS011;6483;51.310;4.462;2022-07-10T10:45:21;4.80;;;1.13;;
12832;SDS011;6483;51.310;4.462;2022-07-10T10:50:36;2.65;;;0.80;;
12832;SDS011;6483;51.310;4.462;2022-07-10T10:53:30;2.67;;;0.82;;
12832;SDS011;6483;51.310;4.462;2022-07-10T10:58:51;3.13;;;1.05;;
12832;SDS011;6483;51.310;4.462;2022-07-10T11:06:50;3.53;;;1.20;;
12832;SDS011;6483;51.310;4.462;2022-07-10T11:09:30;1.52;;;0.88;;
12832;SDS011;6483;51.310;4.462;2022-07-10T11:12:06;2.65;;;0.90;;
12832;SDS011;6483;51.310;4.462;2022-07-10T11:14:45;2.42;;;0.60;;
12832;SDS011;6483;51.310;4.462;2022-07-10T11:17:15;3.63;;;1.00;;
12832;SDS011;6483;51.310;4.462;2022-07-10T11:19:44;3.08;;;0.82;;
12832;SDS011;6483;51.310;4.462;2022-07-10T11:28:58;2.50;;;1.10;;
12832;SDS011;6483;51.310;4.462;2022-07-10T11:31:26;2.17;;;0.80;;
12832;SDS011;6483;51.310;4.462;2022-07-10T11:33:53;2.75;;;0.95;;
12832;SDS011;6483;51.310;4.462;2022-07-10T11:36:27;2.10;;;1.08;;
12832;SDS011;6483;51.310;4.462;2022-07-10T11:39:00;4.88;;;0.80;;
12832;SDS011;6483;51.310;4.462;2022-07-10T11:41:26;2.80;;;0.90;;
12832;SDS011;6483;51.310;4.462;2022-07-10T11:43:56;1.05;;;0.60;;
12832;SDS011;6483;51.310;4.462;2022-07-10T11:46:24;3.00;;;0.93;;
12832;SDS011;6483;51.310;4.462;2022-07-10T11:48:55;2.72;;;0.95;;
12832;SDS011;6483;51.310;4.462;2022-07-10T11:54:01;6.13;;;0.93;;
12832;SDS011;6483;51.310;4.462;2022-07-10T11:56:47;2.00;;;1.15;;
12832;SDS011;6483;51.310;4.462;2022-07-10T11:59:14;3.30;;;0.70;;
12832;SDS011;6483;51.310;4.462;2022-07-10T12:01:59;3.10;;;0.90;;
12832;SDS011;6483;51.310;4.462;2022-07-10T12:04:25;0.98;;;0.75;;
12832;SDS011;6483;51.310;4.462;2022-07-10T12:06:54;2.92;;;0.93;;
12832;SDS011;6483;51.310;4.462;2022-07-10T12:09:21;1.77;;;0.90;;
12832;SDS011;6483;51.310;4.462;2022-07-10T12:12:03;1.30;;;0.52;;
12832;SDS011;6483;51.310;4.462;2022-07-10T12:14:31;2.10;;;0.60;;
12832;SDS011;6483;51.310;4.462;2022-07-10T12:16:57;1.25;;;1.00;;
12832;SDS011;6483;51.310;4.462;2022-07-10T12:19:24;2.15;;;0.70;;
12832;SDS011;6483;51.310;4.462;2022-07-10T12:22:07;2.95;;;0.90;;
12832;SDS011;6483;51.310;4.462;2022-07-10T12:24:36;1.67;;;0.82;;
12832;SDS011;6483;51.310;4.462;2022-07-10T12:27:02;3.45;;;1.00;;
12832;SDS011;6483;51.310;4.462;2022-07-10T12:29:29;2.53;;;0.82;;
12832;SDS011;6483;51.310;4.462;2022-07-10T12:34:47;1.67;;;0.77;;
12832;SDS011;6483;51.310;4.462;2022-07-10T12:37:16;2.42;;;0.73;;
12832;SDS011;6483;51.310;4.462;2022-07-10T12:39:49;2.42;;;0.73;;
12832;SDS011;6483;51.310;4.462;2022-07-10T12:42:51;3.67;;;1.30;;
12832;SDS011;6483;51.310;4.462;2022-07-10T12:45:10;3.13;;;1.23;;
12832;SDS011;6483;51.310;4.462;2022-07-10T12:47:43;3.42;;;1.30;;
12832;SDS011;6483;51.310;4.462;2022-07-10T12:50:10;1.25;;;0.88;;
12832;SDS011;6483;51.310;4.462;2022-07-10T12:52:38;2.70;;;1.00;;
12832;SDS011;6483;51.310;4.462;2022-07-10T12:55:17;2.00;;;0.90;;
12832;SDS011;6483;51.310;4.462;2022-07-10T12:57:47;3.42;;;0.98;;
12832;SDS011;6483;51.310;4.462;2022-07-10T13:00:44;3.65;;;0.90;;
12832;SDS011;6483;51.310;4.462;2022-07-10T13:03:18;1.83;;;0.68;;
12832;SDS011;6483;51.310;4.462;2022-07-10T13:05:46;2.38;;;0.85;;
12832;SDS011;6483;51.310;4.462;2022-07-10T13:08:13;3.33;;;1.08;;
12832;SDS011;6483;51.310;4.462;2022-07-10T13:10:50;1.48;;;0.82;;
12832;SDS011;6483;51.310;4.462;2022-07-10T13:13:19;2.78;;;1.00;;
12832;SDS011;6483;51.310;4.462;2022-07-10T13:15:48;3.63;;;0.85;;
12832;SDS011;6483;51.310;4.462;2022-07-10T13:18:22;2.30;;;0.88;;
12832;SDS011;6483;51.310;4.462;2022-07-10T13:20:53;2.30;;;0.90;;
12832;SDS011;6483;51.310;4.462;2022-07-10T13:23:21;4.47;;;0.93;;
12832;SDS011;6483;51.310;4.462;2022-07-10T13:25:54;3.88;;;1.10;;
12832;SDS011;6483;51.310;4.462;2022-07-10T13:28:21;2.72;;;0.80;;
12832;SDS011;6483;51.310;4.462;2022-07-10T13:30:48;3.25;;;1.50;;
12832;SDS011;6483;51.310;4.462;2022-07-10T13:33:17;2.60;;;1.00;;
12832;SDS011;6483;51.310;4.462;2022-07-10T13:35:43;1.95;;;0.68;;
12832;SDS011;6483;51.310;4.462;2022-07-10T13:38:09;2.55;;;0.90;;
12832;SDS011;6483;51.310;4.462;2022-07-10T13:40:36;2.38;;;0.70;;
12832;SDS011;6483;51.310;4.462;2022-07-10T13:43:02;2.20;;;0.95;;
12832;SDS011;6483;51.310;4.462;2022-07-10T13:45:29;2.50;;;0.95;;
12832;SDS011;6483;51.310;4.462;2022-07-10T13:47:58;1.63;;;0.85;;
12832;SDS011;6483;51.310;4.462;2022-07-10T13:50:24;4.18;;;1.00;;
12832;SDS011;6483;51.310;4.462;2022-07-10T13:52:51;3.67;;;0.90;;
12832;SDS011;6483;51.310;4.462;2022-07-10T13:55:16;1.75;;;0.75;;
12832;SDS011;6483;51.310;4.462;2022-07-10T13:57:42;1.92;;;1.00;;
12832;SDS011;6483;51.310;4.462;2022-07-10T14:00:12;1.75;;;0.73;;
12832;SDS011;6483;51.310;4.462;2022-07-10T14:02:41;2.45;;;1.17;;
12832;SDS011;6483;51.310;4.462;2022-07-10T14:05:07;2.78;;;1.17;;
12832;SDS011;6483;51.310;4.462;2022-07-10T14:07:33;3.13;;;1.15;;
12832;SDS011;6483;51.310;4.462;2022-07-10T14:09:59;2.95;;;1.25;;
12832;SDS011;6483;51.310;4.462;2022-07-10T14:12:26;1.33;;;0.75;;
12832;SDS011;6483;51.310;4.462;2022-07-10T14:14:57;2.25;;;0.80;;
12832;SDS011;6483;51.310;4.462;2022-07-10T14:17:26;1.20;;;0.52;;
12832;SDS011;6483;51.310;4.462;2022-07-10T14:19:55;1.45;;;0.60;;
12832;SDS011;6483;51.310;4.462;2022-07-10T14:22:20;0.50;;;0.50;;
12832;SDS011;6483;51.310;4.462;2022-07-10T14:24:47;1.90;;;0.70;;
12832;SDS011;6483;51.310;4.462;2022-07-10T14:27:13;2.47;;;0.95;;
12832;SDS011;6483;51.310;4.462;2022-07-10T14:29:45;1.35;;;0.80;;
12832;SDS011;6483;51.310;4.462;2022-07-10T14:32:16;1.48;;;0.80;;
12832;SDS011;6483;51.310;4.462;2022-07-10T14:34:45;2.40;;;0.55;;
12832;SDS011;6483;51.310;4.462;2022-07-10T14:37:14;1.13;;;0.85;;
12832;SDS011;6483;51.310;4.462;2022-07-10T14:39:40;2.58;;;0.80;;
12832;SDS011;6483;51.310;4.462;2022-07-10T14:42:07;1.00;;;0.47;;
12832;SDS011;6483;51.310;4.462;2022-07-10T14:44:34;1.50;;;0.82;;
12832;SDS011;6483;51.310;4.462;2022-07-10T14:47:00;0.65;;;0.63;;
12832;SDS011;6483;51.310;4.462;2022-07-10T14:49:26;0.73;;;0.70;;
12832;SDS011;6483;51.310;4.462;2022-07-10T14:51:52;4.57;;;0.80;;
12832;SDS011;6483;51.310;4.462;2022-07-10T14:54:23;1.67;;;0.68;;
12832;SDS011;6483;51.310;4.462;2022-07-10T14:56:49;0.77;;;0.50;;
12832;SDS011;6483;51.310;4.462;2022-07-10T14:59:15;2.15;;;0.70;;
12832;SDS011;6483;51.310;4.462;2022-07-10T15:01:41;0.95;;;0.85;;
12832;SDS011;6483;51.310;4.462;2022-07-10T15:04:10;1.98;;;0.70;;
12832;SDS011;6483;51.310;4.462;2022-07-10T15:06:39;1.15;;;0.65;;
12832;SDS011;6483;51.310;4.462;2022-07-10T15:09:05;2.90;;;1.02;;
12832;SDS011;6483;51.310;4.462;2022-07-10T15:11:37;2.55;;;0.70;;
12832;SDS011;6483;51.310;4.462;2022-07-10T15:14:04;3.45;;;0.60;;
12832;SDS011;6483;51.310;4.462;2022-07-10T15:16:30;3.08;;;0.80;;
12832;SDS011;6483;51.310;4.462;2022-07-10T15:18:56;2.83;;;0.70;;
12832;SDS011;6483;51.310;4.462;2022-07-10T15:21:23;2.03;;;0.77;;
12832;SDS011;6483;51.310;4.462;2022-07-10T15:23:49;1.48;;;0.77;;
12832;SDS011;6483;51.310;4.462;2022-07-10T15:26:15;0.60;;;0.45;;
12832;SDS011;6483;51.310;4.462;2022-07-10T15:28:42;1.70;;;0.70;;
12832;SDS011;6483;51.310;4.462;2022-07-10T15:31:08;2.20;;;0.70;;
12832;SDS011;6483;51.310;4.462;2022-07-10T15:33:37;1.45;;;0.40;;
12832;SDS011;6483;51.310;4.462;2022-07-10T15:36:09;4.53;;;0.75;;
12832;SDS011;6483;51.310;4.462;2022-07-10T15:38:41;0.52;;;0.30;;
12832;SDS011;6483;51.310;4.462;2022-07-10T15:41:10;1.63;;;0.60;;
12832;SDS011;6483;51.310;4.462;2022-07-10T15:43:37;1.35;;;0.55;;
12832;SDS011;6483;51.310;4.462;2022-07-10T15:46:07;2.47;;;0.70;;
12832;SDS011;6483;51.310;4.462;2022-07-10T15:48:37;1.40;;;0.70;;